sensor_id;sensor_type;location;lat;lon;timestamp;pressure;altitude;pressure_sealevel;temperature;humidity
44138;BME280;29800;55.942;37.314;2023-04-26T00:01:02;98251.75;;;12.02;73.29
44138;BME280;29800;55.942;37.314;2023-04-26T00:03:31;98243.63;;;11.97;73.31
44138;BME280;29800;55.942;37.314;2023-04-26T00:05:59;98240.56;;;11.98;73.83
44138;BME280;29800;55.942;37.314;2023-04-26T00:08:30;98237.63;;;11.94;73.95
44138;BME280;29800;55.942;37.314;2023-04-26T00:10:56;98243.94;;;11.90;74.22
44138;BME280;29800;55.942;37.314;2023-04-26T00:13:23;98227.50;;;11.90;74.32
44138;BME280;29800;55.942;37.314;2023-04-26T00:15:49;98231.06;;;11.90;74.46
44138;BME280;29800;55.942;37.314;2023-04-26T00:18:16;98239.88;;;11.87;74.51
44138;BME280;29800;55.942;37.314;2023-04-26T00:20:45;98232.75;;;11.86;74.81
44138;BME280;29800;55.942;37.314;2023-04-26T00:23:11;98227.88;;;11.83;74.93
44138;BME280;29800;55.942;37.314;2023-04-26T00:25:38;98224.09;;;11.79;75.21
44138;BME280;29800;55.942;37.314;2023-04-26T00:28:04;98220.31;;;11.75;75.51
44138;BME280;29800;55.942;37.314;2023-04-26T00:30:31;98221.41;;;11.74;75.96
44138;BME280;29800;55.942;37.314;2023-04-26T00:32:59;98215.91;;;11.74;76.00
44138;BME280;29800;55.942;37.314;2023-04-26T00:35:25;98210.75;;;11.72;75.81
44138;BME280;29800;55.942;37.314;2023-04-26T00:37:52;98212.16;;;11.70;75.86
44138;BME280;29800;55.942;37.314;2023-04-26T00:40:18;98207.78;;;11.69;75.95
44138;BME280;29800;55.942;37.314;2023-04-26T00:42:46;98206.66;;;11.70;76.06
44138;BME280;29800;55.942;37.314;2023-04-26T00:45:12;98204.00;;;11.65;76.02
44138;BME280;29800;55.942;37.314;2023-04-26T00:47:39;98198.81;;;11.63;76.36
44138;BME280;29800;55.942;37.314;2023-04-26T00:50:06;98196.66;;;11.60;76.65
44138;BME280;29800;55.942;37.314;2023-04-26T00:52:33;98198.88;;;11.58;76.83
44138;BME280;29800;55.942;37.314;2023-04-26T00:55:00;98195.63;;;11.56;76.75
44138;BME280;29800;55.942;37.314;2023-04-26T00:57:27;98192.34;;;11.54;76.97
44138;BME280;29800;55.942;37.314;2023-04-26T00:59:54;98192.34;;;11.54;76.72
44138;BME280;29800;55.942;37.314;2023-04-26T01:02:20;98193.19;;;11.54;76.88
44138;BME280;29800;55.942;37.314;2023-04-26T01:04:47;98188.28;;;11.51;76.96
44138;BME280;29800;55.942;37.314;2023-04-26T01:07:14;98189.91;;;11.52;76.77
44138;BME280;29800;55.942;37.314;2023-04-26T01:09:40;98188.28;;;11.51;76.73
44138;BME280;29800;55.942;37.314;2023-04-26T01:12:07;98185.00;;;11.49;76.98
44138;BME280;29800;55.942;37.314;2023-04-26T01:14:34;98176.50;;;11.51;76.84
44138;BME280;29800;55.942;37.314;2023-04-26T01:17:03;98169.19;;;11.46;76.90
44138;BME280;29800;55.942;37.314;2023-04-26T01:19:31;98164.28;;;11.43;77.08
44138;BME280;29800;55.942;37.314;2023-04-26T01:21:58;98165.69;;;11.40;77.45
44138;BME280;29800;55.942;37.314;2023-04-26T01:24:24;98159.97;;;11.37;77.47
44138;BME280;29800;55.942;37.314;2023-04-26T01:26:50;98155.59;;;11.36;77.78
44138;BME280;29800;55.942;37.314;2023-04-26T01:29:19;98160.25;;;11.35;77.80
44138;BME280;29800;55.942;37.314;2023-04-26T01:31:47;98151.81;;;11.32;77.74
44138;BME280;29800;55.942;37.314;2023-04-26T01:34:14;98151.81;;;11.32;77.74
44138;BME280;29800;55.942;37.314;2023-04-26T01:36:41;98142.25;;;11.29;78.06
44138;BME280;29800;55.942;37.314;2023-04-26T01:39:07;98142.84;;;11.26;77.96
44138;BME280;29800;55.942;37.314;2023-04-26T01:41:34;98140.41;;;11.25;78.31
44138;BME280;29800;55.942;37.314;2023-04-26T01:44:00;98134.91;;;11.25;78.49
44138;BME280;29800;55.942;37.314;2023-04-26T01:46:27;98133.31;;;11.24;78.71
44138;BME280;29800;55.942;37.314;2023-04-26T01:48:53;98127.84;;;11.24;78.78
44138;BME280;29800;55.942;37.314;2023-04-26T01:51:22;98128.41;;;11.20;78.90
44138;BME280;29800;55.942;37.314;2023-04-26T01:53:48;98129.50;;;11.19;79.09
44138;BME280;29800;55.942;37.314;2023-04-26T01:56:15;98130.63;;;11.18;79.01
44138;BME280;29800;55.942;37.314;2023-04-26T01:58:41;98123.53;;;11.17;79.24
44138;BME280;29800;55.942;37.314;2023-04-26T02:01:09;98115.81;;;11.19;79.44
44138;BME280;29800;55.942;37.314;2023-04-26T02:03:36;98122.94;;;11.20;79.38
44138;BME280;29800;55.942;37.314;2023-04-26T02:06:03;98110.34;;;11.19;79.31
44138;BME280;29800;55.942;37.314;2023-04-26T02:08:29;98111.47;;;11.18;79.53
44138;BME280;29800;55.942;37.314;2023-04-26T02:10:56;98105.44;;;11.16;79.41
44138;BME280;29800;55.942;37.314;2023-04-26T02:13:22;98105.69;;;11.20;79.52
44138;BME280;29800;55.942;37.314;2023-04-26T02:15:49;98105.44;;;11.16;79.82
44138;BME280;29800;55.942;37.314;2023-04-26T02:18:17;98095.34;;;11.17;79.64
44138;BME280;29800;55.942;37.314;2023-04-26T02:20:47;98095.34;;;11.17;79.93
44138;BME280;29800;55.942;37.314;2023-04-26T02:23:13;98087.41;;;11.15;79.90
44138;BME280;29800;55.942;37.314;2023-04-26T02:25:44;98085.19;;;11.17;80.12
44138;BME280;29800;55.942;37.314;2023-04-26T02:28:12;98084.59;;;11.20;79.62
44138;BME280;29800;55.942;37.314;2023-04-26T02:30:39;98084.09;;;11.18;79.73
44138;BME280;29800;55.942;37.314;2023-04-26T02:33:05;98079.94;;;11.21;79.88
44138;BME280;29800;55.942;37.314;2023-04-26T02:35:32;98081.78;;;11.26;79.80
44138;BME280;29800;55.942;37.314;2023-04-26T02:37:58;98080.16;;;11.25;79.62
44138;BME280;29800;55.942;37.314;2023-04-26T02:40:24;98071.94;;;11.25;79.72
44138;BME280;29800;55.942;37.314;2023-04-26T02:42:51;98067.88;;;11.22;79.73
44138;BME280;29800;55.942;37.314;2023-04-26T02:45:17;98069.81;;;11.21;79.73
44138;BME280;29800;55.942;37.314;2023-04-26T02:47:44;98066.53;;;11.19;80.12
44138;BME280;29800;55.942;37.314;2023-04-26T02:50:10;98064.91;;;11.18;80.23
44138;BME280;29800;55.942;37.314;2023-04-26T02:52:37;98059.44;;;11.18;80.38
44138;BME280;29800;55.942;37.314;2023-04-26T02:55:04;98063.28;;;11.17;80.51
44138;BME280;29800;55.942;37.314;2023-04-26T02:57:32;98065.44;;;11.20;80.53
44138;BME280;29800;55.942;37.314;2023-04-26T02:59:58;98065.44;;;11.20;80.33
44138;BME280;29800;55.942;37.314;2023-04-26T03:02:26;98061.28;;;11.23;80.32
44138;BME280;29800;55.942;37.314;2023-04-26T03:04:52;98058.53;;;11.23;80.53
44138;BME280;29800;55.942;37.314;2023-04-26T03:07:20;98058.03;;;11.21;80.33
44138;BME280;29800;55.942;37.314;2023-04-26T03:09:46;98057.72;;;11.22;80.56
44138;BME280;29800;55.942;37.314;2023-04-26T03:12:13;98052.75;;;11.25;80.33
44138;BME280;29800;55.942;37.314;2023-04-26T03:14:39;98042.66;;;11.25;80.24
44138;BME280;29800;55.942;37.314;2023-04-26T03:17:06;98052.19;;;11.28;80.20
44138;BME280;29800;55.942;37.314;2023-04-26T03:19:33;98046.69;;;11.28;80.35
44138;BME280;29800;55.942;37.314;2023-04-26T03:22:01;98044.50;;;11.30;80.24
44138;BME280;29800;55.942;37.314;2023-04-26T03:24:27;98042.06;;;11.28;80.09
44138;BME280;29800;55.942;37.314;2023-04-26T03:26:54;98042.06;;;11.28;80.37
44138;BME280;29800;55.942;37.314;2023-04-26T03:29:21;98037.38;;;11.29;80.76
44138;BME280;29800;55.942;37.314;2023-04-26T03:31:48;98035.16;;;11.31;80.51
44138;BME280;29800;55.942;37.314;2023-04-26T03:34:14;98033.84;;;11.28;80.55
44138;BME280;29800;55.942;37.314;2023-04-26T03:36:42;98035.22;;;11.26;80.55
44138;BME280;29800;55.942;37.314;2023-04-26T03:39:11;98040.19;;;11.24;80.93
44138;BME280;29800;55.942;37.314;2023-04-26T03:41:38;98024.88;;;11.22;81.42
44138;BME280;29800;55.942;37.314;2023-04-26T03:44:06;98025.09;;;11.26;81.37
44138;BME280;29800;55.942;37.314;2023-04-26T03:46:33;98024.88;;;11.22;81.09
44138;BME280;29800;55.942;37.314;2023-04-26T03:48:59;98023.75;;;11.24;81.06
44138;BME280;29800;55.942;37.314;2023-04-26T03:51:26;98023.19;;;11.27;80.95
44138;BME280;29800;55.942;37.314;2023-04-26T03:53:53;98021.53;;;11.26;80.92
44138;BME280;29800;55.942;37.314;2023-04-26T03:56:20;98018.00;;;11.25;80.97
44138;BME280;29800;55.942;37.314;2023-04-26T03:58:46;98016.06;;;11.26;81.19
44138;BME280;29800;55.942;37.314;2023-04-26T04:01:13;98016.34;;;11.24;81.69
44138;BME280;29800;55.942;37.314;2023-04-26T04:03:39;98013.31;;;11.26;81.73
44138;BME280;29800;55.942;37.314;2023-04-26T04:06:06;98019.91;;;11.25;82.04
44138;BME280;29800;55.942;37.314;2023-04-26T04:08:33;98019.31;;;11.28;81.98
44138;BME280;29800;55.942;37.314;2023-04-26T04:10:59;98016.88;;;11.26;81.83
44138;BME280;29800;55.942;37.314;2023-04-26T04:13:27;98012.22;;;11.27;81.84
44138;BME280;29800;55.942;37.314;2023-04-26T04:15:55;98014.97;;;11.27;82.04
44138;BME280;29800;55.942;37.314;2023-04-26T04:18:22;98016.06;;;11.26;82.00
44138;BME280;29800;55.942;37.314;2023-04-26T04:20:48;98001.47;;;11.30;81.99
44138;BME280;29800;55.942;37.314;2023-04-26T04:23:15;98007.19;;;11.34;81.44
44138;BME280;29800;55.942;37.314;2023-04-26T04:25:42;98000.91;;;11.33;81.55
44138;BME280;29800;55.942;37.314;2023-04-26T04:28:11;98002.78;;;11.33;81.52
44138;BME280;29800;55.942;37.314;2023-04-26T04:30:38;97998.44;;;11.32;81.53
44138;BME280;29800;55.942;37.314;2023-04-26T04:33:05;98006.16;;;11.30;81.84
44138;BME280;29800;55.942;37.314;2023-04-26T04:35:33;97999.53;;;11.31;82.00
44138;BME280;29800;55.942;37.314;2023-04-26T04:38:02;97994.06;;;11.31;82.26
44138;BME280;29800;55.942;37.314;2023-04-26T04:40:29;97995.72;;;11.32;82.36
44138;BME280;29800;55.942;37.314;2023-04-26T04:42:56;98003.09;;;11.31;82.57
44138;BME280;29800;55.942;37.314;2023-04-26T04:45:26;97997.25;;;11.38;82.74
44138;BME280;29800;55.942;37.314;2023-04-26T04:47:55;97996.06;;;11.44;82.40
44138;BME280;29800;55.942;37.314;2023-04-26T04:50:22;97997.09;;;11.48;82.38
44138;BME280;29800;55.942;37.314;2023-04-26T04:52:48;98000.25;;;11.55;82.38
44138;BME280;29800;55.942;37.314;2023-04-26T04:55:14;98002.09;;;11.60;82.12
44138;BME280;29800;55.942;37.314;2023-04-26T04:57:42;97999.56;;;11.64;82.19
44138;BME280;29800;55.942;37.314;2023-04-26T05:00:09;98002.31;;;11.64;82.15
44138;BME280;29800;55.942;37.314;2023-04-26T05:02:46;98001.22;;;11.65;82.03
44138;BME280;29800;55.942;37.314;2023-04-26T05:05:12;97996.84;;;11.64;82.29
44138;BME280;29800;55.942;37.314;2023-04-26T05:07:39;98001.22;;;11.65;82.50
44138;BME280;29800;55.942;37.314;2023-04-26T05:10:06;97995.75;;;11.65;82.62
44138;BME280;29800;55.942;37.314;2023-04-26T05:12:33;97997.34;;;11.66;82.91
44138;BME280;29800;55.942;37.314;2023-04-26T05:15:00;97998.38;;;11.70;82.47
44138;BME280;29800;55.942;37.314;2023-04-26T05:17:29;97994.53;;;11.71;82.52
44138;BME280;29800;55.942;37.314;2023-04-26T05:20:00;97992.50;;;11.76;82.41
44138;BME280;29800;55.942;37.314;2023-04-26T05:22:31;97995.47;;;11.80;82.06
44138;BME280;29800;55.942;37.314;2023-04-26T05:25:00;97989.38;;;11.83;81.70
44138;BME280;29800;55.942;37.314;2023-04-26T05:27:27;97997.00;;;11.86;81.60
44138;BME280;29800;55.942;37.314;2023-04-26T05:30:11;97992.34;;;11.87;81.49
44138;BME280;29800;55.942;37.314;2023-04-26T05:32:48;97994.28;;;11.86;81.61
44138;BME280;29800;55.942;37.314;2023-04-26T05:35:32;97997.50;;;11.88;81.63
44138;BME280;29800;55.942;37.314;2023-04-26T05:38:01;97994.78;;;11.88;81.41
44138;BME280;29800;55.942;37.314;2023-04-26T05:40:27;97989.53;;;11.92;81.52
44138;BME280;29800;55.942;37.314;2023-04-26T05:42:54;97991.16;;;11.93;81.24
44138;BME280;29800;55.942;37.314;2023-04-26T05:45:21;97989.66;;;12.01;80.81
44138;BME280;29800;55.942;37.314;2023-04-26T05:47:49;97989.38;;;12.02;80.58
44138;BME280;29800;55.942;37.314;2023-04-26T05:50:16;97994.84;;;12.02;80.54
44138;BME280;29800;55.942;37.314;2023-04-26T05:52:43;97991.66;;;11.95;80.50
44138;BME280;29800;55.942;37.314;2023-04-26T05:55:09;97998.50;;;11.98;80.65
44138;BME280;29800;55.942;37.314;2023-04-26T05:57:36;97992.34;;;11.87;80.90
44138;BME280;29800;55.942;37.314;2023-04-26T06:00:03;97997.59;;;11.83;81.21
44138;BME280;29800;55.942;37.314;2023-04-26T06:02:39;97995.16;;;11.82;81.16
44138;BME280;29800;55.942;37.314;2023-04-26T06:05:11;98003.88;;;11.70;81.53
44138;BME280;29800;55.942;37.314;2023-04-26T06:07:37;98003.16;;;11.64;81.95
44138;BME280;29800;55.942;37.314;2023-04-26T06:10:05;98005.34;;;11.62;82.44
44138;BME280;29800;55.942;37.314;2023-04-26T06:12:32;98004.97;;;11.69;82.66
44138;BME280;29800;55.942;37.314;2023-04-26T06:14:59;97998.19;;;11.66;82.64
44138;BME280;29800;55.942;37.314;2023-04-26T06:17:29;98006.09;;;11.68;82.71
44138;BME280;29800;55.942;37.314;2023-04-26T06:19:55;98007.72;;;11.69;82.69
44138;BME280;29800;55.942;37.314;2023-04-26T06:22:22;97998.47;;;11.65;82.78
44138;BME280;29800;55.942;37.314;2023-04-26T06:24:48;98000.63;;;11.68;82.89
44138;BME280;29800;55.942;37.314;2023-04-26T06:27:15;98006.09;;;11.68;83.10
44138;BME280;29800;55.942;37.314;2023-04-26T06:29:45;98005.56;;;11.66;82.96
44138;BME280;29800;55.942;37.314;2023-04-26T06:32:11;98006.69;;;11.65;83.25
44138;BME280;29800;55.942;37.314;2023-04-26T06:34:38;98001.72;;;11.67;83.30
44138;BME280;29800;55.942;37.314;2023-04-26T06:37:06;98009.34;;;11.70;83.53
44138;BME280;29800;55.942;37.314;2023-04-26T06:39:33;98002.78;;;11.71;83.56
44138;BME280;29800;55.942;37.314;2023-04-26T06:42:00;98003.56;;;11.71;83.88
44138;BME280;29800;55.942;37.314;2023-04-26T06:44:45;98003.28;;;11.73;83.83
44138;BME280;29800;55.942;37.314;2023-04-26T06:47:11;98011.00;;;11.71;83.66
44138;BME280;29800;55.942;37.314;2023-04-26T06:49:38;98009.34;;;11.70;83.75
44138;BME280;29800;55.942;37.314;2023-04-26T06:52:04;98006.09;;;11.68;83.93
44138;BME280;29800;55.942;37.314;2023-04-26T06:54:31;98010.16;;;11.70;84.01
44138;BME280;29800;55.942;37.314;2023-04-26T06:56:58;98015.63;;;11.70;83.98
44138;BME280;29800;55.942;37.314;2023-04-26T06:59:25;98012.09;;;11.70;84.00
44138;BME280;29800;55.942;37.314;2023-04-26T07:01:54;98015.94;;;11.69;83.79
44138;BME280;29800;55.942;37.314;2023-04-26T07:04:21;98019.22;;;11.71;83.96
44138;BME280;29800;55.942;37.314;2023-04-26T07:06:47;98016.69;;;11.74;84.47
44138;BME280;29800;55.942;37.314;2023-04-26T07:09:14;98019.94;;;11.76;84.47
44138;BME280;29800;55.942;37.314;2023-04-26T07:11:40;98022.88;;;11.80;84.34
44138;BME280;29800;55.942;37.314;2023-04-26T07:14:09;98020.34;;;11.84;84.50
44138;BME280;29800;55.942;37.314;2023-04-26T07:16:36;98024.41;;;11.86;84.17
44138;BME280;29800;55.942;37.314;2023-04-26T07:19:03;98023.81;;;11.89;83.91
44138;BME280;29800;55.942;37.314;2023-04-26T07:21:29;98023.53;;;11.91;84.24
44138;BME280;29800;55.942;37.314;2023-04-26T07:23:55;98021.03;;;11.94;84.20
44138;BME280;29800;55.942;37.314;2023-04-26T07:26:24;98018.69;;;12.02;84.54
44138;BME280;29800;55.942;37.314;2023-04-26T07:28:51;98022.47;;;12.06;84.80
44138;BME280;29800;55.942;37.314;2023-04-26T07:31:18;98032.00;;;12.08;84.52
44138;BME280;29800;55.942;37.314;2023-04-26T07:33:45;98031.22;;;12.08;84.04
44138;BME280;29800;55.942;37.314;2023-04-26T07:36:11;98032.53;;;12.10;83.92
44138;BME280;29800;55.942;37.314;2023-04-26T07:38:38;98038.22;;;12.14;84.17
44138;BME280;29800;55.942;37.314;2023-04-26T07:41:04;98032.25;;;12.12;83.49
44138;BME280;29800;55.942;37.314;2023-04-26T07:43:30;98033.84;;;12.13;83.60
44138;BME280;29800;55.942;37.314;2023-04-26T07:46:00;98036.00;;;12.16;83.81
44138;BME280;29800;55.942;37.314;2023-04-26T07:48:27;98044.44;;;12.20;83.92
44138;BME280;29800;55.942;37.314;2023-04-26T07:50:53;98042.13;;;12.27;84.40
44138;BME280;29800;55.942;37.314;2023-04-26T07:53:21;98045.47;;;12.38;84.12
44138;BME280;29800;55.942;37.314;2023-04-26T07:55:49;98050.25;;;12.46;83.75
44138;BME280;29800;55.942;37.314;2023-04-26T07:58:16;98047.22;;;12.47;83.03
44138;BME280;29800;55.942;37.314;2023-04-26T08:00:44;98049.56;;;12.54;82.39
44138;BME280;29800;55.942;37.314;2023-04-26T08:03:12;98046.72;;;12.59;82.63
44138;BME280;29800;55.942;37.314;2023-04-26T08:05:39;98041.63;;;12.66;82.56
44138;BME280;29800;55.942;37.314;2023-04-26T08:08:05;98045.38;;;12.71;82.37
44138;BME280;29800;55.942;37.314;2023-04-26T08:10:32;98047.13;;;12.80;82.14
44138;BME280;29800;55.942;37.314;2023-04-26T08:12:58;98048.94;;;12.85;82.12
44138;BME280;29800;55.942;37.314;2023-04-26T08:15:28;98046.91;;;12.91;81.58
44138;BME280;29800;55.942;37.314;2023-04-26T08:17:54;98048.72;;;12.95;81.39
44138;BME280;29800;55.942;37.314;2023-04-26T08:20:20;98053.00;;;13.01;81.28
44138;BME280;29800;55.942;37.314;2023-04-26T08:22:47;98059.50;;;13.05;80.87
44138;BME280;29800;55.942;37.314;2023-04-26T08:25:14;98051.66;;;13.13;81.40
44138;BME280;29800;55.942;37.314;2023-04-26T08:27:41;98059.28;;;13.16;81.03
44138;BME280;29800;55.942;37.314;2023-04-26T08:30:09;98055.63;;;13.20;80.97
44138;BME280;29800;55.942;37.314;2023-04-26T08:32:36;98059.66;;;13.23;80.68
44138;BME280;29800;55.942;37.314;2023-04-26T08:35:03;98055.19;;;13.27;80.38
44138;BME280;29800;55.942;37.314;2023-04-26T08:37:29;98054.28;;;13.32;80.68
44138;BME280;29800;55.942;37.314;2023-04-26T08:39:56;98060.50;;;13.37;80.43
44138;BME280;29800;55.942;37.314;2023-04-26T08:42:25;98058.16;;;13.45;80.62
44138;BME280;29800;55.942;37.314;2023-04-26T08:44:52;98061.28;;;13.52;80.64
44138;BME280;29800;55.942;37.314;2023-04-26T08:50:01;98058.16;;;13.67;80.66
44138;BME280;29800;55.942;37.314;2023-04-26T08:52:30;98060.59;;;13.69;79.55
44138;BME280;29800;55.942;37.314;2023-04-26T08:54:58;98059.16;;;13.71;79.49
44138;BME280;29800;55.942;37.314;2023-04-26T08:57:24;98064.06;;;13.74;79.20
44138;BME280;29800;55.942;37.314;2023-04-26T08:59:52;98063.44;;;13.77;78.96
44138;BME280;29800;55.942;37.314;2023-04-26T09:02:20;98060.38;;;13.79;78.52
44138;BME280;29800;55.942;37.314;2023-04-26T09:04:48;98065.03;;;13.78;77.83
44138;BME280;29800;55.942;37.314;2023-04-26T09:07:31;98072.16;;;13.79;76.73
44138;BME280;29800;55.942;37.314;2023-04-26T09:09:59;98066.28;;;13.72;76.61
44138;BME280;29800;55.942;37.314;2023-04-26T09:12:26;98070.34;;;13.75;76.99
44138;BME280;29800;55.942;37.314;2023-04-26T09:14:52;98069.53;;;13.74;77.11
44138;BME280;29800;55.942;37.314;2023-04-26T09:17:25;98068.28;;;13.81;76.97
44138;BME280;29800;55.942;37.314;2023-04-26T09:19:52;98070.94;;;13.86;77.20
44138;BME280;29800;55.942;37.314;2023-04-26T09:22:33;98068.91;;;14.00;77.41
44138;BME280;29800;55.942;37.314;2023-04-26T09:25:00;98070.41;;;14.06;77.24
44138;BME280;29800;55.942;37.314;2023-04-26T09:30:08;98071.66;;;14.23;77.37
44138;BME280;29800;55.942;37.314;2023-04-26T09:35:37;98056.72;;;14.46;75.78
44138;BME280;29800;55.942;37.314;2023-04-26T09:38:09;98063.38;;;14.54;75.60
44138;BME280;29800;55.942;37.314;2023-04-26T09:43:10;98052.94;;;14.65;73.29
44138;BME280;29800;55.942;37.314;2023-04-26T09:45:46;98064.31;;;14.72;74.09
44138;BME280;29800;55.942;37.314;2023-04-26T09:50:43;98073.25;;;14.78;73.51
44138;BME280;29800;55.942;37.314;2023-04-26T09:56:09;98078.59;;;14.83;70.85
44138;BME280;29800;55.942;37.314;2023-04-26T09:58:38;98076.81;;;14.78;69.69
44138;BME280;29800;55.942;37.314;2023-04-26T10:01:09;98088.94;;;14.77;70.18
44138;BME280;29800;55.942;37.314;2023-04-26T10:03:36;98082.38;;;14.96;69.97
44138;BME280;29800;55.942;37.314;2023-04-26T10:06:03;98095.28;;;15.27;70.28
44138;BME280;29800;55.942;37.314;2023-04-26T10:08:33;98091.28;;;15.68;69.29
44138;BME280;29800;55.942;37.314;2023-04-26T10:11:02;98096.63;;;16.08;67.93
44138;BME280;29800;55.942;37.314;2023-04-26T10:13:33;98093.03;;;16.33;67.79
44138;BME280;29800;55.942;37.314;2023-04-26T10:16:00;98094.97;;;16.42;67.67
44138;BME280;29800;55.942;37.314;2023-04-26T10:18:28;98106.50;;;16.35;66.38
44138;BME280;29800;55.942;37.314;2023-04-26T10:20:57;98100.19;;;16.26;65.86
44138;BME280;29800;55.942;37.314;2023-04-26T10:23:25;98101.50;;;16.11;65.46
44138;BME280;29800;55.942;37.314;2023-04-26T10:25:53;98111.91;;;15.96;64.94
44138;BME280;29800;55.942;37.314;2023-04-26T10:28:52;98103.63;;;15.96;65.48
44138;BME280;29800;55.942;37.314;2023-04-26T10:31:22;98111.69;;;15.75;64.62
44138;BME280;29800;55.942;37.314;2023-04-26T10:34:18;98099.88;;;15.75;65.20
44138;BME280;29800;55.942;37.314;2023-04-26T10:37:11;98106.34;;;15.61;65.64
44138;BME280;29800;55.942;37.314;2023-04-26T10:39:39;98120.59;;;15.46;65.23
44138;BME280;29800;55.942;37.314;2023-04-26T10:44:51;98117.66;;;15.34;64.71
44138;BME280;29800;55.942;37.314;2023-04-26T10:47:32;98119.47;;;15.38;65.48
44138;BME280;29800;55.942;37.314;2023-04-26T10:50:09;98128.72;;;15.51;66.15
44138;BME280;29800;55.942;37.314;2023-04-26T10:55:38;98117.84;;;15.72;65.95
44138;BME280;29800;55.942;37.314;2023-04-26T11:01:08;98124.38;;;15.85;64.39
44138;BME280;29800;55.942;37.314;2023-04-26T11:03:36;98132.19;;;15.83;64.14
44138;BME280;29800;55.942;37.314;2023-04-26T11:06:06;98127.97;;;15.86;62.97
44138;BME280;29800;55.942;37.314;2023-04-26T11:08:35;98131.22;;;15.88;62.98
44138;BME280;29800;55.942;37.314;2023-04-26T11:11:11;98127.31;;;15.89;62.17
44138;BME280;29800;55.942;37.314;2023-04-26T11:13:40;98132.03;;;15.88;63.24
44138;BME280;29800;55.942;37.314;2023-04-26T11:16:15;98124.06;;;16.04;61.21
44138;BME280;29800;55.942;37.314;2023-04-26T11:18:43;98140.47;;;16.01;61.00
44138;BME280;29800;55.942;37.314;2023-04-26T11:21:10;98136.25;;;15.94;60.87
44138;BME280;29800;55.942;37.314;2023-04-26T11:23:38;98141.44;;;15.87;62.41
44138;BME280;29800;55.942;37.314;2023-04-26T11:26:06;98136.59;;;15.84;62.28
44138;BME280;29800;55.942;37.314;2023-04-26T11:28:37;98141.78;;;15.86;62.88
44138;BME280;29800;55.942;37.314;2023-04-26T11:31:05;98150.69;;;15.83;62.41
44138;BME280;29800;55.942;37.314;2023-04-26T11:33:32;98158.81;;;15.79;62.96
44138;BME280;29800;55.942;37.314;2023-04-26T11:36:02;98152.78;;;15.77;62.14
44138;BME280;29800;55.942;37.314;2023-04-26T11:38:28;98161.56;;;15.79;62.17
44138;BME280;29800;55.942;37.314;2023-04-26T11:40:57;98161.34;;;15.75;62.81
44138;BME280;29800;55.942;37.314;2023-04-26T11:43:34;98173.25;;;15.76;63.22
44138;BME280;29800;55.942;37.314;2023-04-26T11:46:01;98181.28;;;15.63;63.75
44138;BME280;29800;55.942;37.314;2023-04-26T11:48:29;98182.09;;;15.64;62.82
44138;BME280;29800;55.942;37.314;2023-04-26T11:50:56;98189.72;;;15.58;62.78
44138;BME280;29800;55.942;37.314;2023-04-26T11:53:40;98183.06;;;15.59;62.43
44138;BME280;29800;55.942;37.314;2023-04-26T11:56:17;98174.94;;;15.54;62.95
44138;BME280;29800;55.942;37.314;2023-04-26T11:58:48;98183.03;;;15.51;62.63
44138;BME280;29800;55.942;37.314;2023-04-26T12:01:28;98180.81;;;15.70;62.37
44138;BME280;29800;55.942;37.314;2023-04-26T12:03:56;98169.84;;;15.96;61.19
44138;BME280;29800;55.942;37.314;2023-04-26T12:06:45;98171.13;;;16.34;61.04
44138;BME280;29800;55.942;37.314;2023-04-26T12:09:12;98172.91;;;16.56;59.11
44138;BME280;29800;55.942;37.314;2023-04-26T12:11:39;98169.13;;;16.61;58.26
44138;BME280;29800;55.942;37.314;2023-04-26T12:14:05;98173.00;;;16.77;58.29
44138;BME280;29800;55.942;37.314;2023-04-26T12:16:35;98172.16;;;17.03;58.09
44138;BME280;29800;55.942;37.314;2023-04-26T12:19:06;98169.84;;;17.14;56.64
44138;BME280;29800;55.942;37.314;2023-04-26T12:21:42;98175.84;;;17.16;55.76
44138;BME280;29800;55.942;37.314;2023-04-26T12:24:22;98173.06;;;17.16;55.26
44138;BME280;29800;55.942;37.314;2023-04-26T12:26:49;98178.81;;;17.02;55.41
44138;BME280;29800;55.942;37.314;2023-04-26T12:29:16;98176.03;;;17.11;55.72
44138;BME280;29800;55.942;37.314;2023-04-26T12:31:42;98180.19;;;17.25;56.46
44138;BME280;29800;55.942;37.314;2023-04-26T12:34:09;98178.16;;;17.43;55.76
44138;BME280;29800;55.942;37.314;2023-04-26T12:36:35;98175.47;;;17.56;55.80
44138;BME280;29800;55.942;37.314;2023-04-26T12:39:02;98171.06;;;17.85;56.00
44138;BME280;29800;55.942;37.314;2023-04-26T12:41:30;98179.88;;;18.08;53.75
44138;BME280;29800;55.942;37.314;2023-04-26T12:43:56;98175.75;;;18.35;52.85
44138;BME280;29800;55.942;37.314;2023-04-26T12:46:23;98167.38;;;18.56;53.19
44138;BME280;29800;55.942;37.314;2023-04-26T12:48:50;98163.03;;;18.67;52.02
44138;BME280;29800;55.942;37.314;2023-04-26T12:51:17;98173.16;;;18.84;52.14
44138;BME280;29800;55.942;37.314;2023-04-26T12:53:43;98175.38;;;19.03;51.15
44138;BME280;29800;55.942;37.314;2023-04-26T12:56:13;98185.44;;;18.96;50.75
44138;BME280;29800;55.942;37.314;2023-04-26T12:58:41;98184.78;;;18.78;50.04
44138;BME280;29800;55.942;37.314;2023-04-26T13:01:09;98182.19;;;18.60;50.71
44138;BME280;29800;55.942;37.314;2023-04-26T13:03:39;98180.06;;;18.45;51.38
44138;BME280;29800;55.942;37.314;2023-04-26T13:06:08;98194.97;;;18.31;52.06
44138;BME280;29800;55.942;37.314;2023-04-26T13:08:35;98190.06;;;18.16;51.70
44138;BME280;29800;55.942;37.314;2023-04-26T13:11:01;98197.81;;;18.02;53.01
44138;BME280;29800;55.942;37.314;2023-04-26T13:13:28;98194.16;;;17.89;53.16
44138;BME280;29800;55.942;37.314;2023-04-26T13:15:54;98205.59;;;17.78;52.84
44138;BME280;29800;55.942;37.314;2023-04-26T13:18:21;98196.72;;;17.64;53.24
44138;BME280;29800;55.942;37.314;2023-04-26T13:20:47;98196.25;;;17.62;54.66